sensor_id;sensor_type;location;lat;lon;timestamp;P1;durP1;ratioP1;P2;durP2;ratioP2
7199;SDS011;3641;49.082;8.200;2023-08-06T00:01:51;11.27;;;3.30;;
7199;SDS011;3641;49.082;8.200;2023-08-06T00:04:17;4.93;;;2.92;;
7199;SDS011;3641;49.082;8.200;2023-08-06T00:06:44;6.05;;;2.92;;
7199;SDS011;3641;49.082;8.200;2023-08-06T00:09:10;5.20;;;2.70;;
7199;SDS011;3641;49.082;8.200;2023-08-06T00:11:39;7.60;;;3.30;;
7199;SDS011;3641;49.082;8.200;2023-08-06T00:14:08;11.55;;;3.05;;
7199;SDS011;3641;49.082;8.200;2023-08-06T00:16:35;4.60;;;2.85;;
7199;SDS011;3641;49.082;8.200;2023-08-06T00:19:01;6.10;;;3.05;;
7199;SDS011;3641;49.082;8.200;2023-08-06T00:21:28;4.47;;;2.95;;
7199;SDS011;3641;49.082;8.200;2023-08-06T00:23:54;6.22;;;3.38;;
7199;SDS011;3641;49.082;8.200;2023-08-06T00:26:21;4.88;;;3.10;;
7199;SDS011;3641;49.082;8.200;2023-08-06T00:28:48;9.10;;;3.42;;
7199;SDS011;3641;49.082;8.200;2023-08-06T00:31:15;6.38;;;3.40;;
7199;SDS011;3641;49.082;8.200;2023-08-06T00:33:41;6.60;;;2.75;;
7199;SDS011;3641;49.082;8.200;2023-08-06T00:36:08;6.32;;;3.22;;
7199;SDS011;3641;49.082;8.200;2023-08-06T00:38:34;6.80;;;2.88;;
7199;SDS011;3641;49.082;8.200;2023-08-06T00:41:00;6.30;;;2.67;;
7199;SDS011;3641;49.082;8.200;2023-08-06T00:43:27;7.03;;;3.30;;
7199;SDS011;3641;49.082;8.200;2023-08-06T00:45:55;6.03;;;3.00;;
7199;SDS011;3641;49.082;8.200;2023-08-06T00:48:22;7.47;;;2.88;;
7199;SDS011;3641;49.082;8.200;2023-08-06T00:50:48;3.72;;;2.60;;
7199;SDS011;3641;49.082;8.200;2023-08-06T00:53:14;4.68;;;2.70;;
7199;SDS011;3641;49.082;8.200;2023-08-06T00:55:41;4.10;;;2.90;;
7199;SDS011;3641;49.082;8.200;2023-08-06T00:58:10;6.45;;;3.38;;
7199;SDS011;3641;49.082;8.200;2023-08-06T01:00:37;5.22;;;2.80;;
7199;SDS011;3641;49.082;8.200;2023-08-06T01:03:06;5.05;;;2.85;;
7199;SDS011;3641;49.082;8.200;2023-08-06T01:05:32;6.70;;;2.63;;
7199;SDS011;3641;49.082;8.200;2023-08-06T01:08:04;6.47;;;2.78;;
7199;SDS011;3641;49.082;8.200;2023-08-06T01:10:40;6.03;;;2.80;;
7199;SDS011;3641;49.082;8.200;2023-08-06T01:13:18;7.85;;;3.53;;
7199;SDS011;3641;49.082;8.200;2023-08-06T01:15:51;7.57;;;2.85;;
7199;SDS011;3641;49.082;8.200;2023-08-06T01:18:23;4.50;;;2.95;;
7199;SDS011;3641;49.082;8.200;2023-08-06T01:20:51;7.28;;;2.90;;
7199;SDS011;3641;49.082;8.200;2023-08-06T01:23:17;6.68;;;2.78;;
7199;SDS011;3641;49.082;8.200;2023-08-06T01:25:46;7.47;;;2.60;;
7199;SDS011;3641;49.082;8.200;2023-08-06T01:28:22;6.10;;;2.92;;
7199;SDS011;3641;49.082;8.200;2023-08-06T01:30:52;6.20;;;3.00;;
7199;SDS011;3641;49.082;8.200;2023-08-06T01:33:21;4.45;;;3.00;;
7199;SDS011;3641;49.082;8.200;2023-08-06T01:35:48;3.97;;;2.40;;
7199;SDS011;3641;49.082;8.200;2023-08-06T01:38:18;4.10;;;2.67;;
7199;SDS011;3641;49.082;8.200;2023-08-06T01:40:44;4.75;;;2.45;;
7199;SDS011;3641;49.082;8.200;2023-08-06T01:43:11;4.95;;;2.63;;
7199;SDS011;3641;49.082;8.200;2023-08-06T01:45:37;8.15;;;2.67;;
7199;SDS011;3641;49.082;8.200;2023-08-06T01:48:04;6.15;;;2.72;;
7199;SDS011;3641;49.082;8.200;2023-08-06T01:50:30;7.10;;;2.75;;
7199;SDS011;3641;49.082;8.200;2023-08-06T01:52:58;5.47;;;3.05;;
7199;SDS011;3641;49.082;8.200;2023-08-06T01:55:24;8.85;;;3.03;;
7199;SDS011;3641;49.082;8.200;2023-08-06T01:57:51;6.25;;;2.92;;
7199;SDS011;3641;49.082;8.200;2023-08-06T02:00:17;7.60;;;2.60;;
7199;SDS011;3641;49.082;8.200;2023-08-06T02:02:44;6.32;;;2.95;;
7199;SDS011;3641;49.082;8.200;2023-08-06T02:05:10;8.10;;;2.80;;
7199;SDS011;3641;49.082;8.200;2023-08-06T02:07:36;7.00;;;2.70;;
7199;SDS011;3641;49.082;8.200;2023-08-06T02:10:05;5.05;;;2.70;;
7199;SDS011;3641;49.082;8.200;2023-08-06T02:12:32;5.60;;;2.58;;
7199;SDS011;3641;49.082;8.200;2023-08-06T02:14:58;6.45;;;2.83;;
7199;SDS011;3641;49.082;8.200;2023-08-06T02:17:25;8.25;;;2.80;;
7199;SDS011;3641;49.082;8.200;2023-08-06T02:19:51;7.90;;;2.97;;
7199;SDS011;3641;49.082;8.200;2023-08-06T02:22:18;6.93;;;2.97;;
7199;SDS011;3641;49.082;8.200;2023-08-06T02:24:44;6.55;;;3.17;;
7199;SDS011;3641;49.082;8.200;2023-08-06T02:27:12;7.72;;;2.80;;
7199;SDS011;3641;49.082;8.200;2023-08-06T02:29:39;4.85;;;2.95;;
7199;SDS011;3641;49.082;8.200;2023-08-06T02:32:06;7.28;;;2.60;;
7199;SDS011;3641;49.082;8.200;2023-08-06T02:34:33;5.90;;;2.95;;
7199;SDS011;3641;49.082;8.200;2023-08-06T02:36:59;7.82;;;2.97;;
7199;SDS011;3641;49.082;8.200;2023-08-06T02:39:26;4.80;;;2.67;;
7199;SDS011;3641;49.082;8.200;2023-08-06T02:41:52;6.75;;;2.97;;
7199;SDS011;3641;49.082;8.200;2023-08-06T02:44:20;6.10;;;3.08;;
7199;SDS011;3641;49.082;8.200;2023-08-06T02:46:46;4.97;;;3.03;;
7199;SDS011;3641;49.082;8.200;2023-08-06T02:49:13;4.53;;;2.50;;
7199;SDS011;3641;49.082;8.200;2023-08-06T02:51:39;5.75;;;2.60;;
7199;SDS011;3641;49.082;8.200;2023-08-06T02:54:05;10.45;;;2.58;;
7199;SDS011;3641;49.082;8.200;2023-08-06T02:56:32;5.25;;;2.50;;
7199;SDS011;3641;49.082;8.200;2023-08-06T02:58:58;5.10;;;2.50;;
7199;SDS011;3641;49.082;8.200;2023-08-06T03:01:26;5.57;;;2.20;;
7199;SDS011;3641;49.082;8.200;2023-08-06T03:03:53;7.30;;;2.03;;
7199;SDS011;3641;49.082;8.200;2023-08-06T03:06:20;3.53;;;1.83;;
7199;SDS011;3641;49.082;8.200;2023-08-06T03:08:46;3.33;;;1.60;;
7199;SDS011;3641;49.082;8.200;2023-08-06T03:11:12;5.88;;;1.65;;
7199;SDS011;3641;49.082;8.200;2023-08-06T03:13:39;8.90;;;2.03;;
7199;SDS011;3641;49.082;8.200;2023-08-06T03:16:05;7.75;;;1.77;;
7199;SDS011;3641;49.082;8.200;2023-08-06T03:18:33;5.90;;;1.75;;
7199;SDS011;3641;49.082;8.200;2023-08-06T03:21:00;4.95;;;1.48;;
7199;SDS011;3641;49.082;8.200;2023-08-06T03:23:26;10.40;;;2.05;;
7199;SDS011;3641;49.082;8.200;2023-08-06T03:25:52;4.55;;;1.40;;
7199;SDS011;3641;49.082;8.200;2023-08-06T03:28:19;5.72;;;1.50;;
7199;SDS011;3641;49.082;8.200;2023-08-06T03:30:45;8.15;;;1.85;;
7199;SDS011;3641;49.082;8.200;2023-08-06T03:33:12;8.95;;;1.52;;
7199;SDS011;3641;49.082;8.200;2023-08-06T03:35:39;9.15;;;2.00;;
7199;SDS011;3641;49.082;8.200;2023-08-06T03:38:06;6.72;;;1.60;;
7199;SDS011;3641;49.082;8.200;2023-08-06T03:40:34;6.32;;;1.50;;
7199;SDS011;3641;49.082;8.200;2023-08-06T03:43:01;3.95;;;1.48;;
7199;SDS011;3641;49.082;8.200;2023-08-06T03:45:27;5.68;;;1.50;;
7199;SDS011;3641;49.082;8.200;2023-08-06T03:47:53;7.47;;;1.50;;
7199;SDS011;3641;49.082;8.200;2023-08-06T03:50:20;4.88;;;1.10;;
7199;SDS011;3641;49.082;8.200;2023-08-06T03:52:48;5.10;;;1.48;;
7199;SDS011;3641;49.082;8.200;2023-08-06T03:55:15;8.52;;;1.52;;
7199;SDS011;3641;49.082;8.200;2023-08-06T03:57:41;7.07;;;1.40;;
7199;SDS011;3641;49.082;8.200;2023-08-06T04:00:08;4.38;;;1.50;;
7199;SDS011;3641;49.082;8.200;2023-08-06T04:02:35;8.25;;;2.00;;
7199;SDS011;3641;49.082;8.200;2023-08-06T04:05:01;8.32;;;1.95;;
7199;SDS011;3641;49.082;8.200;2023-08-06T04:07:28;6.60;;;1.77;;
7199;SDS011;3641;49.082;8.200;2023-08-06T04:09:56;6.88;;;1.60;;
7199;SDS011;3641;49.082;8.200;2023-08-06T04:12:24;4.18;;;1.50;;
7199;SDS011;3641;49.082;8.200;2023-08-06T04:14:51;9.18;;;1.50;;
7199;SDS011;3641;49.082;8.200;2023-08-06T04:17:18;8.27;;;1.30;;
7199;SDS011;3641;49.082;8.200;2023-08-06T04:19:46;6.65;;;1.52;;
7199;SDS011;3641;49.082;8.200;2023-08-06T04:22:13;4.22;;;1.50;;
7199;SDS011;3641;49.082;8.200;2023-08-06T04:24:40;5.63;;;1.42;;
7199;SDS011;3641;49.082;8.200;2023-08-06T04:27:07;5.95;;;1.60;;
7199;SDS011;3641;49.082;8.200;2023-08-06T04:29:34;6.35;;;1.45;;
7199;SDS011;3641;49.082;8.200;2023-08-06T04:32:01;6.65;;;1.23;;
7199;SDS011;3641;49.082;8.200;2023-08-06T04:34:28;6.00;;;1.55;;
7199;SDS011;3641;49.082;8.200;2023-08-06T04:36:54;6.35;;;1.33;;
7199;SDS011;3641;49.082;8.200;2023-08-06T04:39:21;5.95;;;1.40;;
7199;SDS011;3641;49.082;8.200;2023-08-06T04:41:47;5.50;;;1.10;;
7199;SDS011;3641;49.082;8.200;2023-08-06T04:44:15;5.70;;;1.33;;
7199;SDS011;3641;49.082;8.200;2023-08-06T04:46:41;6.43;;;1.23;;
7199;SDS011;3641;49.082;8.200;2023-08-06T04:49:08;7.40;;;1.50;;
7199;SDS011;3641;49.082;8.200;2023-08-06T04:51:34;3.92;;;1.00;;
7199;SDS011;3641;49.082;8.200;2023-08-06T04:54:01;3.03;;;1.02;;
7199;SDS011;3641;49.082;8.200;2023-08-06T04:56:27;7.43;;;1.70;;
7199;SDS011;3641;49.082;8.200;2023-08-06T04:58:54;7.22;;;1.15;;
7199;SDS011;3641;49.082;8.200;2023-08-06T05:01:22;4.22;;;1.00;;
7199;SDS011;3641;49.082;8.200;2023-08-06T05:03:48;3.03;;;0.80;;
7199;SDS011;3641;49.082;8.200;2023-08-06T05:06:14;7.47;;;1.23;;
7199;SDS011;3641;49.082;8.200;2023-08-06T05:08:41;4.50;;;1.48;;
7199;SDS011;3641;49.082;8.200;2023-08-06T05:11:07;3.47;;;0.82;;
7199;SDS011;3641;49.082;8.200;2023-08-06T05:13:35;9.63;;;1.10;;
7199;SDS011;3641;49.082;8.200;2023-08-06T05:16:01;5.68;;;0.90;;
7199;SDS011;3641;49.082;8.200;2023-08-06T05:18:29;6.30;;;1.10;;
7199;SDS011;3641;49.082;8.200;2023-08-06T05:20:55;5.72;;;1.10;;
7199;SDS011;3641;49.082;8.200;2023-08-06T05:23:22;9.35;;;1.13;;
7199;SDS011;3641;49.082;8.200;2023-08-06T05:25:48;7.68;;;1.20;;
7199;SDS011;3641;49.082;8.200;2023-08-06T05:28:15;3.42;;;1.00;;
7199;SDS011;3641;49.082;8.200;2023-08-06T05:30:41;5.72;;;0.90;;
7199;SDS011;3641;49.082;8.200;2023-08-06T05:33:08;5.28;;;1.00;;
7199;SDS011;3641;49.082;8.200;2023-08-06T05:35:35;4.20;;;0.80;;
7199;SDS011;3641;49.082;8.200;2023-08-06T05:38:02;7.70;;;0.90;;
7199;SDS011;3641;49.082;8.200;2023-08-06T05:40:28;2.35;;;0.70;;
7199;SDS011;3641;49.082;8.200;2023-08-06T05:42:55;1.75;;;0.57;;
7199;SDS011;3641;49.082;8.200;2023-08-06T05:45:21;2.38;;;0.65;;
7199;SDS011;3641;49.082;8.200;2023-08-06T05:47:48;3.55;;;1.02;;
7199;SDS011;3641;49.082;8.200;2023-08-06T05:50:14;1.65;;;0.73;;
7199;SDS011;3641;49.082;8.200;2023-08-06T05:52:42;2.45;;;0.70;;
7199;SDS011;3641;49.082;8.200;2023-08-06T05:55:09;2.25;;;0.65;;
7199;SDS011;3641;49.082;8.200;2023-08-06T05:57:35;3.88;;;0.80;;
7199;SDS011;3641;49.082;8.200;2023-08-06T06:00:02;2.60;;;0.70;;
7199;SDS011;3641;49.082;8.200;2023-08-06T06:02:31;5.65;;;0.65;;
7199;SDS011;3641;49.082;8.200;2023-08-06T06:04:58;3.90;;;0.57;;
7199;SDS011;3641;49.082;8.200;2023-08-06T06:07:24;4.80;;;0.90;;
7199;SDS011;3641;49.082;8.200;2023-08-06T06:09:52;2.67;;;0.57;;
7199;SDS011;3641;49.082;8.200;2023-08-06T06:12:18;4.75;;;0.60;;
7199;SDS011;3641;49.082;8.200;2023-08-06T06:14:47;1.42;;;0.28;;
7199;SDS011;3641;49.082;8.200;2023-08-06T06:17:13;1.88;;;0.50;;
7199;SDS011;3641;49.082;8.200;2023-08-06T06:19:40;2.33;;;0.60;;
7199;SDS011;3641;49.082;8.200;2023-08-06T06:22:06;0.98;;;0.60;;
7199;SDS011;3641;49.082;8.200;2023-08-06T06:24:33;1.65;;;0.47;;
7199;SDS011;3641;49.082;8.200;2023-08-06T06:27:01;4.28;;;0.80;;
7199;SDS011;3641;49.082;8.200;2023-08-06T06:29:27;1.92;;;0.50;;
7199;SDS011;3641;49.082;8.200;2023-08-06T06:31:54;4.32;;;0.75;;
7199;SDS011;3641;49.082;8.200;2023-08-06T06:34:21;1.33;;;0.50;;
7199;SDS011;3641;49.082;8.200;2023-08-06T06:36:48;2.70;;;0.40;;
7199;SDS011;3641;49.082;8.200;2023-08-06T06:39:15;2.33;;;0.70;;
7199;SDS011;3641;49.082;8.200;2023-08-06T06:41:42;2.05;;;0.45;;
7199;SDS011;3641;49.082;8.200;2023-08-06T06:44:10;1.02;;;0.32;;
7199;SDS011;3641;49.082;8.200;2023-08-06T06:46:37;2.25;;;0.32;;
7199;SDS011;3641;49.082;8.200;2023-08-06T06:49:03;1.55;;;0.40;;
7199;SDS011;3641;49.082;8.200;2023-08-06T06:51:30;1.90;;;0.40;;
7199;SDS011;3641;49.082;8.200;2023-08-06T06:53:57;4.97;;;0.50;;
7199;SDS011;3641;49.082;8.200;2023-08-06T06:56:23;0.63;;;0.38;;
7199;SDS011;3641;49.082;8.200;2023-08-06T06:58:50;1.35;;;0.43;;
7199;SDS011;3641;49.082;8.200;2023-08-06T07:01:17;2.42;;;0.40;;
7199;SDS011;3641;49.082;8.200;2023-08-06T07:03:44;0.90;;;0.40;;
7199;SDS011;3641;49.082;8.200;2023-08-06T07:06:13;2.33;;;0.32;;
7199;SDS011;3641;49.082;8.200;2023-08-06T07:08:40;2.40;;;0.40;;
7199;SDS011;3641;49.082;8.200;2023-08-06T07:11:07;0.85;;;0.30;;
7199;SDS011;3641;49.082;8.200;2023-08-06T07:13:33;0.73;;;0.30;;
7199;SDS011;3641;49.082;8.200;2023-08-06T07:16:00;0.70;;;0.32;;
7199;SDS011;3641;49.082;8.200;2023-08-06T07:18:28;0.47;;;0.30;;
7199;SDS011;3641;49.082;8.200;2023-08-06T07:20:55;3.90;;;0.30;;
7199;SDS011;3641;49.082;8.200;2023-08-06T07:23:22;0.98;;;0.30;;
7199;SDS011;3641;49.082;8.200;2023-08-06T07:25:49;1.13;;;0.38;;
7199;SDS011;3641;49.082;8.200;2023-08-06T07:28:16;0.50;;;0.38;;
7199;SDS011;3641;49.082;8.200;2023-08-06T07:30:43;1.73;;;0.30;;
7199;SDS011;3641;49.082;8.200;2023-08-06T07:33:10;0.88;;;0.50;;
7199;SDS011;3641;49.082;8.200;2023-08-06T07:35:38;2.20;;;0.45;;
7199;SDS011;3641;49.082;8.200;2023-08-06T07:38:05;1.83;;;0.30;;
7199;SDS011;3641;49.082;8.200;2023-08-06T07:40:31;0.90;;;0.50;;
7199;SDS011;3641;49.082;8.200;2023-08-06T07:42:58;0.32;;;0.22;;
7199;SDS011;3641;49.082;8.200;2023-08-06T07:45:24;2.25;;;0.40;;
7199;SDS011;3641;49.082;8.200;2023-08-06T07:47:51;0.73;;;0.43;;
7199;SDS011;3641;49.082;8.200;2023-08-06T07:50:18;0.68;;;0.40;;
7199;SDS011;3641;49.082;8.200;2023-08-06T07:52:46;0.75;;;0.38;;
7199;SDS011;3641;49.082;8.200;2023-08-06T07:55:12;0.43;;;0.25;;
7199;SDS011;3641;49.082;8.200;2023-08-06T07:57:39;0.47;;;0.30;;
7199;SDS011;3641;49.082;8.200;2023-08-06T08:00:06;1.17;;;0.30;;
7199;SDS011;3641;49.082;8.200;2023-08-06T08:02:36;0.63;;;0.30;;
7199;SDS011;3641;49.082;8.200;2023-08-06T08:05:02;0.85;;;0.30;;
7199;SDS011;3641;49.082;8.200;2023-08-06T08:07:29;0.40;;;0.30;;
7199;SDS011;3641;49.082;8.200;2023-08-06T08:09:57;0.80;;;0.30;;
7199;SDS011;3641;49.082;8.200;2023-08-06T08:12:24;1.85;;;0.10;;
7199;SDS011;3641;49.082;8.200;2023-08-06T08:14:50;0.40;;;0.30;;
7199;SDS011;3641;49.082;8.200;2023-08-06T08:17:16;1.13;;;0.30;;
7199;SDS011;3641;49.082;8.200;2023-08-06T08:19:43;1.08;;;0.40;;
7199;SDS011;3641;49.082;8.200;2023-08-06T08:22:09;1.02;;;0.40;;
7199;SDS011;3641;49.082;8.200;2023-08-06T08:24:36;0.82;;;0.20;;
7199;SDS011;3641;49.082;8.200;2023-08-06T08:27:04;0.63;;;0.25;;
7199;SDS011;3641;49.082;8.200;2023-08-06T08:29:30;0.75;;;0.32;;
7199;SDS011;3641;49.082;8.200;2023-08-06T08:31:57;1.02;;;0.28;;
7199;SDS011;3641;49.082;8.200;2023-08-06T08:34:24;0.50;;;0.20;;
7199;SDS011;3641;49.082;8.200;2023-08-06T08:36:50;0.52;;;0.40;;
7199;SDS011;3641;49.082;8.200;2023-08-06T08:39:16;1.88;;;0.40;;
7199;SDS011;3641;49.082;8.200;2023-08-06T08:41:43;0.40;;;0.30;;
7199;SDS011;3641;49.082;8.200;2023-08-06T08:44:11;0.45;;;0.20;;
7199;SDS011;3641;49.082;8.200;2023-08-06T08:46:42;1.33;;;0.30;;
7199;SDS011;3641;49.082;8.200;2023-08-06T08:49:10;0.30;;;0.30;;
7199;SDS011;3641;49.082;8.200;2023-08-06T08:51:37;0.20;;;0.20;;
7199;SDS011;3641;49.082;8.200;2023-08-06T08:54:04;0.38;;;0.20;;
7199;SDS011;3641;49.082;8.200;2023-08-06T08:56:31;0.30;;;0.30;;
7199;SDS011;3641;49.082;8.200;2023-08-06T08:58:58;0.60;;;0.40;;
7199;SDS011;3641;49.082;8.200;2023-08-06T09:01:25;0.85;;;0.30;;
7199;SDS011;3641;49.082;8.200;2023-08-06T09:03:53;0.65;;;0.50;;
7199;SDS011;3641;49.082;8.200;2023-08-06T09:06:21;0.30;;;0.30;;
7199;SDS011;3641;49.082;8.200;2023-08-06T09:08:54;1.27;;;0.30;;
7199;SDS011;3641;49.082;8.200;2023-08-06T09:11:27;0.60;;;0.40;;
7199;SDS011;3641;49.082;8.200;2023-08-06T09:13:54;2.17;;;0.43;;
7199;SDS011;3641;49.082;8.200;2023-08-06T09:16:22;0.93;;;0.50;;
7199;SDS011;3641;49.082;8.200;2023-08-06T09:18:49;1.20;;;0.40;;
7199;SDS011;3641;49.082;8.200;2023-08-06T09:21:16;1.65;;;0.20;;
7199;SDS011;3641;49.082;8.200;2023-08-06T09:23:42;0.30;;;0.20;;
7199;SDS011;3641;49.082;8.200;2023-08-06T09:26:11;0.20;;;0.20;;
7199;SDS011;3641;49.082;8.200;2023-08-06T09:28:38;1.20;;;0.30;;
7199;SDS011;3641;49.082;8.200;2023-08-06T09:31:07;0.40;;;0.32;;
7199;SDS011;3641;49.082;8.200;2023-08-06T09:33:35;1.42;;;0.57;;
7199;SDS011;3641;49.082;8.200;2023-08-06T09:36:08;3.45;;;0.40;;
7199;SDS011;3641;49.082;8.200;2023-08-06T09:38:37;0.70;;;0.35;;
7199;SDS011;3641;49.082;8.200;2023-08-06T09:41:05;0.30;;;0.20;;
7199;SDS011;3641;49.082;8.200;2023-08-06T09:43:38;1.60;;;0.32;;
7199;SDS011;3641;49.082;8.200;2023-08-06T09:46:10;1.15;;;0.40;;
7199;SDS011;3641;49.082;8.200;2023-08-06T09:48:38;0.98;;;0.50;;
7199;SDS011;3641;49.082;8.200;2023-08-06T09:51:04;1.13;;;0.30;;
7199;SDS011;3641;49.082;8.200;2023-08-06T09:53:34;1.67;;;0.30;;
7199;SDS011;3641;49.082;8.200;2023-08-06T09:56:03;0.88;;;0.43;;
7199;SDS011;3641;49.082;8.200;2023-08-06T09:58:30;1.73;;;0.47;;
7199;SDS011;3641;49.082;8.200;2023-08-06T10:00:58;0.55;;;0.40;;
7199;SDS011;3641;49.082;8.200;2023-08-06T10:03:25;1.20;;;0.65;;
7199;SDS011;3641;49.082;8.200;2023-08-06T10:05:51;2.45;;;0.80;;
7199;SDS011;3641;49.082;8.200;2023-08-06T10:08:20;2.22;;;0.80;;
7199;SDS011;3641;49.082;8.200;2023-08-06T10:10:47;4.15;;;0.90;;
7199;SDS011;3641;49.082;8.200;2023-08-06T10:13:13;3.50;;;1.70;;
7199;SDS011;3641;49.082;8.200;2023-08-06T10:15:41;1.67;;;0.80;;
7199;SDS011;3641;49.082;8.200;2023-08-06T10:18:08;3.85;;;1.30;;
7199;SDS011;3641;49.082;8.200;2023-08-06T10:20:35;1.23;;;0.80;;
7199;SDS011;3641;49.082;8.200;2023-08-06T10:23:02;1.23;;;0.85;;
7199;SDS011;3641;49.082;8.200;2023-08-06T10:25:32;4.07;;;0.90;;
7199;SDS011;3641;49.082;8.200;2023-08-06T10:27:59;1.92;;;1.00;;
7199;SDS011;3641;49.082;8.200;2023-08-06T10:30:27;3.72;;;1.50;;
7199;SDS011;3641;49.082;8.200;2023-08-06T10:32:55;5.53;;;1.50;;
7199;SDS011;3641;49.082;8.200;2023-08-06T10:35:28;3.47;;;1.30;;
7199;SDS011;3641;49.082;8.200;2023-08-06T10:38:02;2.35;;;1.15;;
7199;SDS011;3641;49.082;8.200;2023-08-06T10:40:32;2.53;;;1.30;;
7199;SDS011;3641;49.082;8.200;2023-08-06T10:42:59;2.95;;;1.40;;
7199;SDS011;3641;49.082;8.200;2023-08-06T10:45:26;5.13;;;1.25;;
7199;SDS011;3641;49.082;8.200;2023-08-06T10:47:54;2.83;;;1.52;;
7199;SDS011;3641;49.082;8.200;2023-08-06T10:50:25;5.75;;;2.38;;
7199;SDS011;3641;49.082;8.200;2023-08-06T10:52:54;3.17;;;1.23;;
7199;SDS011;3641;49.082;8.200;2023-08-06T10:55:24;5.45;;;1.65;;
7199;SDS011;3641;49.082;8.200;2023-08-06T10:57:53;4.18;;;1.55;;
7199;SDS011;3641;49.082;8.200;2023-08-06T11:00:20;2.30;;;1.42;;
7199;SDS011;3641;49.082;8.200;2023-08-06T11:02:47;4.13;;;1.42;;
7199;SDS011;3641;49.082;8.200;2023-08-06T11:05:15;3.70;;;1.48;;
7199;SDS011;3641;49.082;8.200;2023-08-06T11:07:41;3.58;;;1.48;;
7199;SDS011;3641;49.082;8.200;2023-08-06T11:10:09;3.28;;;1.55;;
7199;SDS011;3641;49.082;8.200;2023-08-06T11:12:36;4.60;;;2.00;;
7199;SDS011;3641;49.082;8.200;2023-08-06T11:15:04;2.20;;;1.40;;
7199;SDS011;3641;49.082;8.200;2023-08-06T11:17:32;3.60;;;1.77;;
7199;SDS011;3641;49.082;8.200;2023-08-06T11:19:59;2.80;;;1.42;;
7199;SDS011;3641;49.082;8.200;2023-08-06T11:22:26;3.33;;;1.50;;
7199;SDS011;3641;49.082;8.200;2023-08-06T11:24:53;2.70;;;1.48;;
7199;SDS011;3641;49.082;8.200;2023-08-06T11:27:20;2.85;;;1.50;;
7199;SDS011;3641;49.082;8.200;2023-08-06T11:29:46;4.03;;;1.77;;
7199;SDS011;3641;49.082;8.200;2023-08-06T11:32:14;6.75;;;1.50;;
7199;SDS011;3641;49.082;8.200;2023-08-06T11:34:40;2.95;;;1.58;;
7199;SDS011;3641;49.082;8.200;2023-08-06T11:37:07;2.40;;;1.45;;
7199;SDS011;3641;49.082;8.200;2023-08-06T11:39:33;4.88;;;1.50;;
7199;SDS011;3641;49.082;8.200;2023-08-06T11:42:01;7.88;;;1.70;;
7199;SDS011;3641;49.082;8.200;2023-08-06T11:44:29;6.07;;;3.50;;
7199;SDS011;3641;49.082;8.200;2023-08-06T11:46:58;2.88;;;1.55;;
7199;SDS011;3641;49.082;8.200;2023-08-06T11:49:43;3.95;;;1.70;;
7199;SDS011;3641;49.082;8.200;2023-08-06T11:52:13;3.35;;;1.92;;
7199;SDS011;3641;49.082;8.200;2023-08-06T11:54:43;4.43;;;2.15;;
7199;SDS011;3641;49.082;8.200;2023-08-06T11:57:10;4.38;;;1.90;;
7199;SDS011;3641;49.082;8.200;2023-08-06T11:59:36;6.60;;;2.20;;
7199;SDS011;3641;49.082;8.200;2023-08-06T12:02:04;5.43;;;2.20;;
7199;SDS011;3641;49.082;8.200;2023-08-06T12:04:31;7.53;;;2.03;;
7199;SDS011;3641;49.082;8.200;2023-08-06T12:07:05;4.82;;;2.05;;
7199;SDS011;3641;49.082;8.200;2023-08-06T12:09:33;4.53;;;2.25;;
7199;SDS011;3641;49.082;8.200;2023-08-06T12:12:01;4.43;;;2.10;;
7199;SDS011;3641;49.082;8.200;2023-08-06T12:14:28;3.60;;;1.90;;
7199;SDS011;3641;49.082;8.200;2023-08-06T12:16:54;6.25;;;2.10;;
7199;SDS011;3641;49.082;8.200;2023-08-06T12:19:21;4.28;;;1.80;;
7199;SDS011;3641;49.082;8.200;2023-08-06T12:21:48;5.55;;;1.80;;
7199;SDS011;3641;49.082;8.200;2023-08-06T12:24:16;6.53;;;2.72;;
7199;SDS011;3641;49.082;8.200;2023-08-06T12:26:42;2.53;;;1.58;;
7199;SDS011;3641;49.082;8.200;2023-08-06T12:29:09;4.63;;;1.45;;
7199;SDS011;3641;49.082;8.200;2023-08-06T12:31:35;4.88;;;1.40;;
7199;SDS011;3641;49.082;8.200;2023-08-06T12:34:02;5.45;;;1.67;;
7199;SDS011;3641;49.082;8.200;2023-08-06T12:36:28;4.40;;;1.33;;
7199;SDS011;3641;49.082;8.200;2023-08-06T12:38:55;6.45;;;1.50;;
7199;SDS011;3641;49.082;8.200;2023-08-06T12:41:22;5.28;;;1.60;;
7199;SDS011;3641;49.082;8.200;2023-08-06T12:43:49;4.03;;;1.60;;
7199;SDS011;3641;49.082;8.200;2023-08-06T12:46:16;3.42;;;1.60;;
7199;SDS011;3641;49.082;8.200;2023-08-06T12:48:42;4.88;;;1.33;;
7199;SDS011;3641;49.082;8.200;2023-08-06T12:51:09;2.88;;;1.17;;
7199;SDS011;3641;49.082;8.200;2023-08-06T12:53:35;5.00;;;1.10;;
7199;SDS011;3641;49.082;8.200;2023-08-06T12:56:02;4.70;;;0.98;;
7199;SDS011;3641;49.082;8.200;2023-08-06T12:58:30;2.03;;;1.17;;
7199;SDS011;3641;49.082;8.200;2023-08-06T13:00:57;1.52;;;0.88;;
7199;SDS011;3641;49.082;8.200;2023-08-06T13:03:23;5.15;;;1.52;;
7199;SDS011;3641;49.082;8.200;2023-08-06T13:05:50;1.88;;;0.90;;
7199;SDS011;3641;49.082;8.200;2023-08-06T13:08:17;1.42;;;1.00;;
7199;SDS011;3641;49.082;8.200;2023-08-06T13:10:43;1.02;;;0.73;;
7199;SDS011;3641;49.082;8.200;2023-08-06T13:13:10;1.30;;;0.75;;
7199;SDS011;3641;49.082;8.200;2023-08-06T13:15:37;1.13;;;0.52;;
7199;SDS011;3641;49.082;8.200;2023-08-06T13:18:04;1.38;;;0.60;;
7199;SDS011;3641;49.082;8.200;2023-08-06T13:20:30;1.48;;;0.65;;
7199;SDS011;3641;49.082;8.200;2023-08-06T13:22:57;3.10;;;0.90;;
7199;SDS011;3641;49.082;8.200;2023-08-06T13:25:26;1.27;;;0.82;;
7199;SDS011;3641;49.082;8.200;2023-08-06T13:27:53;1.52;;;0.80;;
7199;SDS011;3641;49.082;8.200;2023-08-06T13:30:19;1.33;;;0.90;;
7199;SDS011;3641;49.082;8.200;2023-08-06T13:32:49;1.75;;;0.80;;
7199;SDS011;3641;49.082;8.200;2023-08-06T13:35:15;1.45;;;0.80;;
7199;SDS011;3641;49.082;8.200;2023-08-06T13:37:42;1.58;;;0.80;;
7199;SDS011;3641;49.082;8.200;2023-08-06T13:40:08;0.98;;;0.70;;
7199;SDS011;3641;49.082;8.200;2023-08-06T13:42:35;1.20;;;0.90;;
7199;SDS011;3641;49.082;8.200;2023-08-06T13:45:02;2.03;;;0.90;;
7199;SDS011;3641;49.082;8.200;2023-08-06T13:47:29;2.10;;;0.93;;
7199;SDS011;3641;49.082;8.200;2023-08-06T13:49:57;1.58;;;0.82;;
7199;SDS011;3641;49.082;8.200;2023-08-06T13:52:24;1.17;;;0.80;;
7199;SDS011;3641;49.082;8.200;2023-08-06T13:54:51;1.52;;;0.93;;
7199;SDS011;3641;49.082;8.200;2023-08-06T13:57:17;3.22;;;1.10;;
7199;SDS011;3641;49.082;8.200;2023-08-06T13:59:44;1.40;;;0.90;;
7199;SDS011;3641;49.082;8.200;2023-08-06T14:02:10;1.90;;;1.02;;
7199;SDS011;3641;49.082;8.200;2023-08-06T14:04:37;5.30;;;1.38;;
7199;SDS011;3641;49.082;8.200;2023-08-06T14:07:06;1.38;;;1.00;;
7199;SDS011;3641;49.082;8.200;2023-08-06T14:09:32;4.75;;;0.98;;
7199;SDS011;3641;49.082;8.200;2023-08-06T14:12:00;1.25;;;0.93;;
7199;SDS011;3641;49.082;8.200;2023-08-06T14:14:26;3.28;;;0.95;;
7199;SDS011;3641;49.082;8.200;2023-08-06T14:16:52;2.33;;;0.73;;
7199;SDS011;3641;49.082;8.200;2023-08-06T14:19:19;2.25;;;0.98;;
7199;SDS011;3641;49.082;8.200;2023-08-06T14:21:46;1.67;;;0.88;;
7199;SDS011;3641;49.082;8.200;2023-08-06T14:24:14;1.65;;;0.80;;
7199;SDS011;3641;49.082;8.200;2023-08-06T14:26:40;1.27;;;0.60;;
7199;SDS011;3641;49.082;8.200;2023-08-06T14:29:06;3.63;;;0.73;;
7199;SDS011;3641;49.082;8.200;2023-08-06T14:31:32;1.63;;;0.80;;
7199;SDS011;3641;49.082;8.200;2023-08-06T14:33:59;0.80;;;0.63;;
7199;SDS011;3641;49.082;8.200;2023-08-06T14:36:25;2.03;;;0.80;;
7199;SDS011;3641;49.082;8.200;2023-08-06T14:38:52;4.75;;;0.80;;
7199;SDS011;3641;49.082;8.200;2023-08-06T14:41:19;1.67;;;0.82;;
7199;SDS011;3641;49.082;8.200;2023-08-06T14:43:46;0.85;;;0.70;;
7199;SDS011;3641;49.082;8.200;2023-08-06T14:46:12;1.17;;;0.60;;
7199;SDS011;3641;49.082;8.200;2023-08-06T14:48:39;2.25;;;0.70;;
7199;SDS011;3641;49.082;8.200;2023-08-06T14:51:05;2.58;;;0.70;;
7199;SDS011;3641;49.082;8.200;2023-08-06T14:53:31;1.88;;;0.88;;
7199;SDS011;3641;49.082;8.200;2023-08-06T14:55:58;1.13;;;0.70;;
7199;SDS011;3641;49.082;8.200;2023-08-06T14:58:26;1.40;;;0.63;;
7199;SDS011;3641;49.082;8.200;2023-08-06T15:00:52;1.60;;;0.77;;
7199;SDS011;3641;49.082;8.200;2023-08-06T15:03:18;0.90;;;0.70;;
7199;SDS011;3641;49.082;8.200;2023-08-06T15:05:46;3.83;;;0.75;;
7199;SDS011;3641;49.082;8.200;2023-08-06T15:08:13;1.52;;;0.80;;
7199;SDS011;3641;49.082;8.200;2023-08-06T15:10:39;2.10;;;0.80;;
7199;SDS011;3641;49.082;8.200;2023-08-06T15:13:06;2.50;;;0.90;;
7199;SDS011;3641;49.082;8.200;2023-08-06T15:15:34;1.90;;;0.80;;